sensor_id;sensor_type;location;lat;lon;timestamp;temperature;humidity
16114;DHT22;8161;-33.910;151.156;2023-07-29T00:01:21;19.00;1.00
16114;DHT22;8161;-33.910;151.156;2023-07-29T00:03:48;19.30;1.00
16114;DHT22;8161;-33.910;151.156;2023-07-29T00:06:16;19.50;1.00
16114;DHT22;8161;-33.910;151.156;2023-07-29T00:08:43;19.70;1.00
16114;DHT22;8161;-33.910;151.156;2023-07-29T00:11:10;19.90;1.00
16114;DHT22;8161;-33.910;151.156;2023-07-29T00:13:37;19.40;1.00
16114;DHT22;8161;-33.910;151.156;2023-07-29T00:18:32;19.80;1.00
16114;DHT22;8161;-33.910;151.156;2023-07-29T00:20:59;20.00;1.00
16114;DHT22;8161;-33.910;151.156;2023-07-29T00:25:54;19.90;1.00
16114;DHT22;8161;-33.910;151.156;2023-07-29T00:28:21;20.30;1.00
16114;DHT22;8161;-33.910;151.156;2023-07-29T00:30:48;20.80;1.00
16114;DHT22;8161;-33.910;151.156;2023-07-29T00:33:15;21.10;1.00
16114;DHT22;8161;-33.910;151.156;2023-07-29T00:35:43;21.50;1.00
16114;DHT22;8161;-33.910;151.156;2023-07-29T00:38:10;21.80;1.00
16114;DHT22;8161;-33.910;151.156;2023-07-29T00:40:38;22.00;1.00
16114;DHT22;8161;-33.910;151.156;2023-07-29T00:43:05;22.20;1.00
16114;DHT22;8161;-33.910;151.156;2023-07-29T00:45:33;22.60;1.00
16114;DHT22;8161;-33.910;151.156;2023-07-29T00:48:02;22.50;1.00
16114;DHT22;8161;-33.910;151.156;2023-07-29T00:50:30;22.10;1.00
16114;DHT22;8161;-33.910;151.156;2023-07-29T00:52:58;22.30;1.00
16114;DHT22;8161;-33.910;151.156;2023-07-29T00:55:25;22.10;1.00
16114;DHT22;8161;-33.910;151.156;2023-07-29T00:57:53;21.70;1.00
16114;DHT22;8161;-33.910;151.156;2023-07-29T01:00:21;21.80;99.90
16114;DHT22;8161;-33.910;151.156;2023-07-29T01:05:16;21.70;1.00
16114;DHT22;8161;-33.910;151.156;2023-07-29T01:13:17;22.50;99.90
16114;DHT22;8161;-33.910;151.156;2023-07-29T01:16:01;22.80;99.90
16114;DHT22;8161;-33.910;151.156;2023-07-29T01:18:33;23.10;99.90
16114;DHT22;8161;-33.910;151.156;2023-07-29T01:23:32;23.50;1.00
16114;DHT22;8161;-33.910;151.156;2023-07-29T01:28:28;23.60;1.00
16114;DHT22;8161;-33.910;151.156;2023-07-29T01:31:20;23.70;1.00
16114;DHT22;8161;-33.910;151.156;2023-07-29T01:36:22;23.50;1.00
16114;DHT22;8161;-33.910;151.156;2023-07-29T01:38:51;23.30;1.00
16114;DHT22;8161;-33.910;151.156;2023-07-29T01:41:19;23.20;1.00
16114;DHT22;8161;-33.910;151.156;2023-07-29T01:43:50;23.00;58.70
16114;DHT22;8161;-33.910;151.156;2023-07-29T01:46:19;22.90;99.90
16114;DHT22;8161;-33.910;151.156;2023-07-29T01:48:49;22.90;99.90
16114;DHT22;8161;-33.910;151.156;2023-07-29T01:51:16;22.70;12.40
16114;DHT22;8161;-33.910;151.156;2023-07-29T01:56:11;22.70;99.90
16114;DHT22;8161;-33.910;151.156;2023-07-29T01:58:38;22.80;39.10
16114;DHT22;8161;-33.910;151.156;2023-07-29T02:03:32;22.80;61.80
16114;DHT22;8161;-33.910;151.156;2023-07-29T02:05:59;23.00;8.30
16114;DHT22;8161;-33.910;151.156;2023-07-29T02:08:27;23.00;1.00
16114;DHT22;8161;-33.910;151.156;2023-07-29T02:10:54;23.20;1.00
16114;DHT22;8161;-33.910;151.156;2023-07-29T02:13:21;23.30;1.00
16114;DHT22;8161;-33.910;151.156;2023-07-29T02:15:49;23.50;1.00
16114;DHT22;8161;-33.910;151.156;2023-07-29T02:20:43;23.80;1.00
16114;DHT22;8161;-33.910;151.156;2023-07-29T02:23:16;24.10;1.00
16114;DHT22;8161;-33.910;151.156;2023-07-29T02:25:46;24.60;1.00
16114;DHT22;8161;-33.910;151.156;2023-07-29T02:28:13;24.40;1.00
16114;DHT22;8161;-33.910;151.156;2023-07-29T02:30:41;24.40;1.00
16114;DHT22;8161;-33.910;151.156;2023-07-29T02:33:11;24.50;1.00
16114;DHT22;8161;-33.910;151.156;2023-07-29T02:35:40;24.40;1.00
16114;DHT22;8161;-33.910;151.156;2023-07-29T02:38:08;24.30;1.00
16114;DHT22;8161;-33.910;151.156;2023-07-29T02:40:35;24.20;1.00
16114;DHT22;8161;-33.910;151.156;2023-07-29T02:43:02;24.30;1.00
16114;DHT22;8161;-33.910;151.156;2023-07-29T02:45:30;24.40;1.00
16114;DHT22;8161;-33.910;151.156;2023-07-29T02:47:57;25.00;1.00
16114;DHT22;8161;-33.910;151.156;2023-07-29T02:52:51;24.80;1.00
16114;DHT22;8161;-33.910;151.156;2023-07-29T02:55:19;24.90;1.00
16114;DHT22;8161;-33.910;151.156;2023-07-29T02:57:46;24.90;1.00
16114;DHT22;8161;-33.910;151.156;2023-07-29T03:00:13;24.80;1.00
16114;DHT22;8161;-33.910;151.156;2023-07-29T03:02:41;24.40;1.00
16114;DHT22;8161;-33.910;151.156;2023-07-29T03:05:09;24.30;1.00
16114;DHT22;8161;-33.910;151.156;2023-07-29T03:07:36;24.00;1.00
16114;DHT22;8161;-33.910;151.156;2023-07-29T03:10:03;23.90;1.00
16114;DHT22;8161;-33.910;151.156;2023-07-29T03:12:32;23.80;1.00
16114;DHT22;8161;-33.910;151.156;2023-07-29T03:14:59;23.40;1.00
16114;DHT22;8161;-33.910;151.156;2023-07-29T03:17:30;23.60;1.00
16114;DHT22;8161;-33.910;151.156;2023-07-29T03:19:57;23.70;1.00
16114;DHT22;8161;-33.910;151.156;2023-07-29T03:22:24;23.60;1.00
16114;DHT22;8161;-33.910;151.156;2023-07-29T03:24:51;23.60;1.00
16114;DHT22;8161;-33.910;151.156;2023-07-29T03:27:19;23.70;1.00
16114;DHT22;8161;-33.910;151.156;2023-07-29T03:34:41;23.50;1.00
16114;DHT22;8161;-33.910;151.156;2023-07-29T03:39:35;23.20;1.00
16114;DHT22;8161;-33.910;151.156;2023-07-29T03:44:30;23.50;1.00
16114;DHT22;8161;-33.910;151.156;2023-07-29T03:46:58;23.10;1.00
16114;DHT22;8161;-33.910;151.156;2023-07-29T03:49:25;23.10;1.00
16114;DHT22;8161;-33.910;151.156;2023-07-29T03:51:52;23.10;1.00
16114;DHT22;8161;-33.910;151.156;2023-07-29T03:54:19;23.00;1.00
16114;DHT22;8161;-33.910;151.156;2023-07-29T03:59:14;23.20;1.00
16114;DHT22;8161;-33.910;151.156;2023-07-29T04:01:41;23.40;1.00
16114;DHT22;8161;-33.910;151.156;2023-07-29T04:04:08;23.50;1.00
16114;DHT22;8161;-33.910;151.156;2023-07-29T04:06:35;23.80;1.00
16114;DHT22;8161;-33.910;151.156;2023-07-29T04:09:03;23.70;1.00
16114;DHT22;8161;-33.910;151.156;2023-07-29T04:11:30;23.50;1.00
16114;DHT22;8161;-33.910;151.156;2023-07-29T04:13:57;23.40;1.00
16114;DHT22;8161;-33.910;151.156;2023-07-29T04:16:24;23.50;1.00
16114;DHT22;8161;-33.910;151.156;2023-07-29T04:18:52;23.50;1.00
16114;DHT22;8161;-33.910;151.156;2023-07-29T04:26:14;23.40;1.00
16114;DHT22;8161;-33.910;151.156;2023-07-29T04:28:41;23.50;1.00
16114;DHT22;8161;-33.910;151.156;2023-07-29T04:31:09;23.30;1.00
16114;DHT22;8161;-33.910;151.156;2023-07-29T04:33:36;23.30;1.00
16114;DHT22;8161;-33.910;151.156;2023-07-29T04:36:04;23.40;1.00
16114;DHT22;8161;-33.910;151.156;2023-07-29T04:38:33;23.30;1.00
16114;DHT22;8161;-33.910;151.156;2023-07-29T04:43:32;23.10;1.00
16114;DHT22;8161;-33.910;151.156;2023-07-29T04:45:59;23.00;1.00
16114;DHT22;8161;-33.910;151.156;2023-07-29T04:48:26;22.90;1.00
16114;DHT22;8161;-33.910;151.156;2023-07-29T04:50:54;22.90;41.20
16114;DHT22;8161;-33.910;151.156;2023-07-29T04:53:21;22.70;6.70
16114;DHT22;8161;-33.910;151.156;2023-07-29T04:55:48;22.90;78.40
16114;DHT22;8161;-33.910;151.156;2023-07-29T05:00:43;22.70;99.90
16114;DHT22;8161;-33.910;151.156;2023-07-29T05:03:10;22.60;99.90
16114;DHT22;8161;-33.910;151.156;2023-07-29T05:05:37;22.70;99.90
16114;DHT22;8161;-33.910;151.156;2023-07-29T05:10:31;22.40;99.90
16114;DHT22;8161;-33.910;151.156;2023-07-29T05:12:59;22.60;99.90
16114;DHT22;8161;-33.910;151.156;2023-07-29T05:15:26;22.50;99.90
16114;DHT22;8161;-33.910;151.156;2023-07-29T05:17:53;22.90;99.90
16114;DHT22;8161;-33.910;151.156;2023-07-29T05:20:20;22.40;99.90
16114;DHT22;8161;-33.910;151.156;2023-07-29T05:22:51;22.30;99.90
16114;DHT22;8161;-33.910;151.156;2023-07-29T05:30:15;22.10;1.00
16114;DHT22;8161;-33.910;151.156;2023-07-29T05:32:45;22.00;1.00
16114;DHT22;8161;-33.910;151.156;2023-07-29T05:35:13;22.10;1.00
16114;DHT22;8161;-33.910;151.156;2023-07-29T05:37:41;22.20;1.00
16114;DHT22;8161;-33.910;151.156;2023-07-29T05:40:09;22.10;1.00
16114;DHT22;8161;-33.910;151.156;2023-07-29T05:42:36;22.00;1.00
16114;DHT22;8161;-33.910;151.156;2023-07-29T05:45:03;22.10;59.80
16114;DHT22;8161;-33.910;151.156;2023-07-29T05:47:31;22.00;25.10
16114;DHT22;8161;-33.910;151.156;2023-07-29T05:49:58;22.20;99.90
16114;DHT22;8161;-33.910;151.156;2023-07-29T05:52:26;21.80;1.00
16114;DHT22;8161;-33.910;151.156;2023-07-29T05:57:20;21.50;57.40
16114;DHT22;8161;-33.910;151.156;2023-07-29T05:59:48;21.60;99.90
16114;DHT22;8161;-33.910;151.156;2023-07-29T06:02:15;21.60;1.00
16114;DHT22;8161;-33.910;151.156;2023-07-29T06:04:42;21.50;99.90
16114;DHT22;8161;-33.910;151.156;2023-07-29T06:07:09;21.40;1.00
16114;DHT22;8161;-33.910;151.156;2023-07-29T06:09:37;21.10;99.90
16114;DHT22;8161;-33.910;151.156;2023-07-29T06:12:04;21.00;1.00
16114;DHT22;8161;-33.910;151.156;2023-07-29T06:14:32;21.00;1.00
16114;DHT22;8161;-33.910;151.156;2023-07-29T06:16:59;20.90;1.00
16114;DHT22;8161;-33.910;151.156;2023-07-29T06:19:27;21.10;1.00
16114;DHT22;8161;-33.910;151.156;2023-07-29T06:24:23;21.10;99.90
16114;DHT22;8161;-33.910;151.156;2023-07-29T06:26:50;21.00;35.50
16114;DHT22;8161;-33.910;151.156;2023-07-29T06:29:17;20.70;99.90
16114;DHT22;8161;-33.910;151.156;2023-07-29T06:31:44;20.60;1.00
16114;DHT22;8161;-33.910;151.156;2023-07-29T06:36:38;20.50;1.00
16114;DHT22;8161;-33.910;151.156;2023-07-29T06:39:06;20.50;99.90
16114;DHT22;8161;-33.910;151.156;2023-07-29T06:41:33;20.70;1.00
16114;DHT22;8161;-33.910;151.156;2023-07-29T06:44:00;20.40;1.00
16114;DHT22;8161;-33.910;151.156;2023-07-29T06:46:27;20.50;99.90
16114;DHT22;8161;-33.910;151.156;2023-07-29T06:48:55;20.60;1.00
16114;DHT22;8161;-33.910;151.156;2023-07-29T06:51:22;20.40;1.00
16114;DHT22;8161;-33.910;151.156;2023-07-29T06:53:49;21.20;1.00
16114;DHT22;8161;-33.910;151.156;2023-07-29T06:58:43;20.50;1.00
16114;DHT22;8161;-33.910;151.156;2023-07-29T07:01:13;20.20;99.90
16114;DHT22;8161;-33.910;151.156;2023-07-29T07:03:41;20.30;1.00
16114;DHT22;8161;-33.910;151.156;2023-07-29T07:06:08;20.00;1.00
16114;DHT22;8161;-33.910;151.156;2023-07-29T07:08:35;20.30;99.90
16114;DHT22;8161;-33.910;151.156;2023-07-29T07:15:57;19.80;99.90
16114;DHT22;8161;-33.910;151.156;2023-07-29T07:18:24;20.20;1.00
16114;DHT22;8161;-33.910;151.156;2023-07-29T07:20:52;20.20;1.00
16114;DHT22;8161;-33.910;151.156;2023-07-29T07:23:19;19.90;1.00
16114;DHT22;8161;-33.910;151.156;2023-07-29T07:25:46;19.80;1.00
16114;DHT22;8161;-33.910;151.156;2023-07-29T07:30:41;20.00;99.90
16114;DHT22;8161;-33.910;151.156;2023-07-29T07:33:08;19.60;99.90
16114;DHT22;8161;-33.910;151.156;2023-07-29T07:35:36;19.60;1.00
16114;DHT22;8161;-33.910;151.156;2023-07-29T07:38:03;19.40;1.00
16114;DHT22;8161;-33.910;151.156;2023-07-29T07:40:34;19.30;99.90
16114;DHT22;8161;-33.910;151.156;2023-07-29T07:45:28;19.70;1.00
16114;DHT22;8161;-33.910;151.156;2023-07-29T07:52:50;19.50;1.00
16114;DHT22;8161;-33.910;151.156;2023-07-29T07:55:17;19.30;1.00
16114;DHT22;8161;-33.910;151.156;2023-07-29T07:57:45;19.20;1.00
16114;DHT22;8161;-33.910;151.156;2023-07-29T08:00:15;19.10;1.00
16114;DHT22;8161;-33.910;151.156;2023-07-29T08:02:44;18.90;1.00
16114;DHT22;8161;-33.910;151.156;2023-07-29T08:05:12;19.10;1.00
16114;DHT22;8161;-33.910;151.156;2023-07-29T08:07:39;19.20;1.00
16114;DHT22;8161;-33.910;151.156;2023-07-29T08:10:07;19.80;1.00
16114;DHT22;8161;-33.910;151.156;2023-07-29T08:12:34;18.80;1.00
16114;DHT22;8161;-33.910;151.156;2023-07-29T08:15:02;18.90;1.00
16114;DHT22;8161;-33.910;151.156;2023-07-29T08:17:29;19.10;1.00
16114;DHT22;8161;-33.910;151.156;2023-07-29T08:19:56;19.00;1.00
16114;DHT22;8161;-33.910;151.156;2023-07-29T08:24:51;18.60;1.00
16114;DHT22;8161;-33.910;151.156;2023-07-29T08:32:16;18.80;1.00
16114;DHT22;8161;-33.910;151.156;2023-07-29T08:34:43;18.70;1.00
16114;DHT22;8161;-33.910;151.156;2023-07-29T08:37:13;18.40;1.00
16114;DHT22;8161;-33.910;151.156;2023-07-29T08:39:40;18.70;1.00
16114;DHT22;8161;-33.910;151.156;2023-07-29T08:47:11;18.10;1.00
16114;DHT22;8161;-33.910;151.156;2023-07-29T08:49:42;18.60;1.00
16114;DHT22;8161;-33.910;151.156;2023-07-29T08:57:07;18.30;1.00
16114;DHT22;8161;-33.910;151.156;2023-07-29T08:59:34;18.50;1.00
16114;DHT22;8161;-33.910;151.156;2023-07-29T09:04:29;18.10;1.00
16114;DHT22;8161;-33.910;151.156;2023-07-29T09:06:56;18.00;1.00
16114;DHT22;8161;-33.910;151.156;2023-07-29T09:09:25;18.20;1.00
16114;DHT22;8161;-33.910;151.156;2023-07-29T09:11:53;18.20;1.00
16114;DHT22;8161;-33.910;151.156;2023-07-29T09:16:48;18.30;1.00
16114;DHT22;8161;-33.910;151.156;2023-07-29T09:24:10;18.10;1.00
16114;DHT22;8161;-33.910;151.156;2023-07-29T09:26:40;17.60;1.00
16114;DHT22;8161;-33.910;151.156;2023-07-29T09:36:33;17.60;1.00
16114;DHT22;8161;-33.910;151.156;2023-07-29T09:39:02;17.90;1.00
16114;DHT22;8161;-33.910;151.156;2023-07-29T09:44:06;17.40;1.00
16114;DHT22;8161;-33.910;151.156;2023-07-29T09:49:04;17.90;1.00
16114;DHT22;8161;-33.910;151.156;2023-07-29T09:51:32;17.40;1.00
16114;DHT22;8161;-33.910;151.156;2023-07-29T09:54:04;17.90;1.00
16114;DHT22;8161;-33.910;151.156;2023-07-29T09:56:31;17.40;1.00
16114;DHT22;8161;-33.910;151.156;2023-07-29T09:58:59;17.60;1.00
16114;DHT22;8161;-33.910;151.156;2023-07-29T10:01:26;17.40;1.00
16114;DHT22;8161;-33.910;151.156;2023-07-29T10:03:54;17.70;1.00
16114;DHT22;8161;-33.910;151.156;2023-07-29T10:06:23;17.50;1.00
16114;DHT22;8161;-33.910;151.156;2023-07-29T10:08:52;17.20;1.00
16114;DHT22;8161;-33.910;151.156;2023-07-29T10:11:21;17.60;1.00
16114;DHT22;8161;-33.910;151.156;2023-07-29T10:18:43;17.50;1.00
16114;DHT22;8161;-33.910;151.156;2023-07-29T10:21:11;17.20;1.00
16114;DHT22;8161;-33.910;151.156;2023-07-29T10:23:45;17.30;1.00
16114;DHT22;8161;-33.910;151.156;2023-07-29T10:26:17;17.10;1.00
16114;DHT22;8161;-33.910;151.156;2023-07-29T10:28:47;17.20;1.00
16114;DHT22;8161;-33.910;151.156;2023-07-29T10:31:16;17.30;4.20
16114;DHT22;8161;-33.910;151.156;2023-07-29T10:33:45;16.90;9.80
16114;DHT22;8161;-33.910;151.156;2023-07-29T10:41:07;16.70;14.80
16114;DHT22;8161;-33.910;151.156;2023-07-29T10:46:19;17.10;11.20
16114;DHT22;8161;-33.910;151.156;2023-07-29T10:48:55;16.70;19.10
16114;DHT22;8161;-33.910;151.156;2023-07-29T10:54:00;16.90;20.50
16114;DHT22;8161;-33.910;151.156;2023-07-29T10:56:35;17.60;22.20
16114;DHT22;8161;-33.910;151.156;2023-07-29T11:01:59;16.80;27.50
16114;DHT22;8161;-33.910;151.156;2023-07-29T11:04:27;16.70;37.20
16114;DHT22;8161;-33.910;151.156;2023-07-29T11:09:52;16.80;57.90
16114;DHT22;8161;-33.910;151.156;2023-07-29T11:15:24;16.70;65.00
16114;DHT22;8161;-33.910;151.156;2023-07-29T11:17:54;16.50;64.00
16114;DHT22;8161;-33.910;151.156;2023-07-29T11:20:26;16.20;66.50
16114;DHT22;8161;-33.910;151.156;2023-07-29T11:23:02;16.30;67.00
16114;DHT22;8161;-33.910;151.156;2023-07-29T11:25:32;16.50;70.90
16114;DHT22;8161;-33.910;151.156;2023-07-29T11:28:02;16.40;75.70
16114;DHT22;8161;-33.910;151.156;2023-07-29T11:30:30;16.30;79.40
16114;DHT22;8161;-33.910;151.156;2023-07-29T11:32:58;16.50;81.70
16114;DHT22;8161;-33.910;151.156;2023-07-29T11:35:25;16.10;82.10
16114;DHT22;8161;-33.910;151.156;2023-07-29T11:37:53;16.00;82.50
16114;DHT22;8161;-33.910;151.156;2023-07-29T11:40:22;16.10;83.90
16114;DHT22;8161;-33.910;151.156;2023-07-29T11:42:55;16.90;84.80
16114;DHT22;8161;-33.910;151.156;2023-07-29T11:45:23;16.20;85.40
16114;DHT22;8161;-33.910;151.156;2023-07-29T11:50:18;16.10;85.20
16114;DHT22;8161;-33.910;151.156;2023-07-29T11:57:42;15.90;85.20
16114;DHT22;8161;-33.910;151.156;2023-07-29T12:00:11;16.00;85.40
16114;DHT22;8161;-33.910;151.156;2023-07-29T12:02:40;16.30;86.10
16114;DHT22;8161;-33.910;151.156;2023-07-29T12:05:09;16.50;87.10
16114;DHT22;8161;-33.910;151.156;2023-07-29T12:07:38;16.70;88.00
16114;DHT22;8161;-33.910;151.156;2023-07-29T12:10:07;16.30;87.20
16114;DHT22;8161;-33.910;151.156;2023-07-29T12:12:47;16.50;80.70
16114;DHT22;8161;-33.910;151.156;2023-07-29T12:15:37;17.00;86.10
16114;DHT22;8161;-33.910;151.156;2023-07-29T12:18:02;16.80;84.70
16114;DHT22;8161;-33.910;151.156;2023-07-29T12:20:30;16.20;85.10
16114;DHT22;8161;-33.910;151.156;2023-07-29T12:25:28;16.30;85.20
16114;DHT22;8161;-33.910;151.156;2023-07-29T12:27:55;16.20;86.40
16114;DHT22;8161;-33.910;151.156;2023-07-29T12:30:25;16.20;83.60
16114;DHT22;8161;-33.910;151.156;2023-07-29T12:32:53;15.90;90.00
16114;DHT22;8161;-33.910;151.156;2023-07-29T12:37:57;16.30;91.20
16114;DHT22;8161;-33.910;151.156;2023-07-29T12:40:25;15.60;91.10
16114;DHT22;8161;-33.910;151.156;2023-07-29T12:42:54;16.20;91.80
16114;DHT22;8161;-33.910;151.156;2023-07-29T12:45:27;15.70;91.90
16114;DHT22;8161;-33.910;151.156;2023-07-29T12:50:22;15.80;92.40
16114;DHT22;8161;-33.910;151.156;2023-07-29T12:52:49;16.30;93.10
16114;DHT22;8161;-33.910;151.156;2023-07-29T12:55:16;16.30;93.30
16114;DHT22;8161;-33.910;151.156;2023-07-29T12:57:44;16.30;93.70
16114;DHT22;8161;-33.910;151.156;2023-07-29T13:02:38;16.10;93.80
16114;DHT22;8161;-33.910;151.156;2023-07-29T13:05:08;15.90;94.10
16114;DHT22;8161;-33.910;151.156;2023-07-29T13:07:36;16.40;94.40
16114;DHT22;8161;-33.910;151.156;2023-07-29T13:10:04;16.20;94.60
16114;DHT22;8161;-33.910;151.156;2023-07-29T13:12:32;15.80;94.20
16114;DHT22;8161;-33.910;151.156;2023-07-29T13:14:59;16.40;94.60
16114;DHT22;8161;-33.910;151.156;2023-07-29T13:17:26;15.90;95.00
16114;DHT22;8161;-33.910;151.156;2023-07-29T13:19:54;16.30;93.80
16114;DHT22;8161;-33.910;151.156;2023-07-29T13:22:21;15.60;94.40
16114;DHT22;8161;-33.910;151.156;2023-07-29T13:27:19;16.00;94.30
16114;DHT22;8161;-33.910;151.156;2023-07-29T13:29:55;15.50;93.40
16114;DHT22;8161;-33.910;151.156;2023-07-29T13:32:22;15.80;93.60
16114;DHT22;8161;-33.910;151.156;2023-07-29T13:37:19;15.90;92.70
16114;DHT22;8161;-33.910;151.156;2023-07-29T13:42:13;15.50;94.40
16114;DHT22;8161;-33.910;151.156;2023-07-29T13:49:35;14.90;96.00
16114;DHT22;8161;-33.910;151.156;2023-07-29T13:52:02;15.50;96.80
16114;DHT22;8161;-33.910;151.156;2023-07-29T13:54:29;15.40;97.30
16114;DHT22;8161;-33.910;151.156;2023-07-29T13:59:24;14.90;98.00
16114;DHT22;8161;-33.910;151.156;2023-07-29T14:01:54;14.90;97.90
16114;DHT22;8161;-33.910;151.156;2023-07-29T14:04:21;15.30;98.50
16114;DHT22;8161;-33.910;151.156;2023-07-29T14:06:48;15.50;98.80
16114;DHT22;8161;-33.910;151.156;2023-07-29T14:11:47;15.40;97.70
16114;DHT22;8161;-33.910;151.156;2023-07-29T14:14:15;15.40;99.90
16114;DHT22;8161;-33.910;151.156;2023-07-29T14:21:36;15.30;99.90
16114;DHT22;8161;-33.910;151.156;2023-07-29T14:24:05;15.40;99.90
16114;DHT22;8161;-33.910;151.156;2023-07-29T14:26:32;15.30;99.90
16114;DHT22;8161;-33.910;151.156;2023-07-29T14:28:59;15.20;99.90
16114;DHT22;8161;-33.910;151.156;2023-07-29T14:31:26;15.00;99.90
16114;DHT22;8161;-33.910;151.156;2023-07-29T14:33:53;15.10;99.90
16114;DHT22;8161;-33.910;151.156;2023-07-29T14:36:22;14.80;99.90
16114;DHT22;8161;-33.910;151.156;2023-07-29T14:38:52;15.00;99.90
16114;DHT22;8161;-33.910;151.156;2023-07-29T14:41:19;15.20;99.90
16114;DHT22;8161;-33.910;151.156;2023-07-29T14:43:46;15.10;99.90
16114;DHT22;8161;-33.910;151.156;2023-07-29T14:46:13;15.00;99.90
16114;DHT22;8161;-33.910;151.156;2023-07-29T14:48:41;14.70;99.90
16114;DHT22;8161;-33.910;151.156;2023-07-29T14:51:08;14.90;99.90
16114;DHT22;8161;-33.910;151.156;2023-07-29T14:53:35;15.30;99.90
16114;DHT22;8161;-33.910;151.156;2023-07-29T14:56:02;14.80;99.90
16114;DHT22;8161;-33.910;151.156;2023-07-29T14:58:30;15.20;99.90
16114;DHT22;8161;-33.910;151.156;2023-07-29T15:00:57;15.10;99.90
16114;DHT22;8161;-33.910;151.156;2023-07-29T15:03:24;15.00;99.90
16114;DHT22;8161;-33.910;151.156;2023-07-29T15:05:52;15.00;99.90
16114;DHT22;8161;-33.910;151.156;2023-07-29T15:08:20;15.20;99.90
16114;DHT22;8161;-33.910;151.156;2023-07-29T15:10:50;15.20;99.90
16114;DHT22;8161;-33.910;151.156;2023-07-29T15:13:17;15.10;99.90
16114;DHT22;8161;-33.910;151.156;2023-07-29T15:15:44;15.30;99.90
16114;DHT22;8161;-33.910;151.156;2023-07-29T15:18:12;14.50;99.90
16114;DHT22;8161;-33.910;151.156;2023-07-29T15:20:39;14.60;99.90
16114;DHT22;8161;-33.910;151.156;2023-07-29T15:23:06;15.10;99.90
16114;DHT22;8161;-33.910;151.156;2023-07-29T15:25:33;14.70;99.90
16114;DHT22;8161;-33.910;151.156;2023-07-29T15:28:00;14.90;99.90
16114;DHT22;8161;-33.910;151.156;2023-07-29T15:30:28;14.70;99.90
16114;DHT22;8161;-33.910;151.156;2023-07-29T15:33:04;14.70;99.90
16114;DHT22;8161;-33.910;151.156;2023-07-29T15:35:37;14.70;99.90
16114;DHT22;8161;-33.910;151.156;2023-07-29T15:38:06;14.70;99.90
16114;DHT22;8161;-33.910;151.156;2023-07-29T15:40:38;14.50;99.90
16114;DHT22;8161;-33.910;151.156;2023-07-29T15:43:05;14.90;99.90
16114;DHT22;8161;-33.910;151.156;2023-07-29T15:45:33;14.90;99.90
16114;DHT22;8161;-33.910;151.156;2023-07-29T15:48:00;14.90;99.90
16114;DHT22;8161;-33.910;151.156;2023-07-29T15:50:28;14.40;99.90
16114;DHT22;8161;-33.910;151.156;2023-07-29T15:52:58;14.40;99.90
16114;DHT22;8161;-33.910;151.156;2023-07-29T15:55:25;14.50;99.90
16114;DHT22;8161;-33.910;151.156;2023-07-29T15:57:53;14.60;99.90
16114;DHT22;8161;-33.910;151.156;2023-07-29T16:00:20;15.00;99.90
16114;DHT22;8161;-33.910;151.156;2023-07-29T16:02:49;15.00;99.90
16114;DHT22;8161;-33.910;151.156;2023-07-29T16:05:16;14.90;99.90
16114;DHT22;8161;-33.910;151.156;2023-07-29T16:07:43;15.10;99.90
16114;DHT22;8161;-33.910;151.156;2023-07-29T16:10:10;14.90;99.90
16114;DHT22;8161;-33.910;151.156;2023-07-29T16:12:38;15.00;99.90
16114;DHT22;8161;-33.910;151.156;2023-07-29T16:15:23;15.00;99.90
16114;DHT22;8161;-33.910;151.156;2023-07-29T16:17:50;14.30;99.90
16114;DHT22;8161;-33.910;151.156;2023-07-29T16:20:19;14.30;99.90
16114;DHT22;8161;-33.910;151.156;2023-07-29T16:22:49;14.20;99.90
16114;DHT22;8161;-33.910;151.156;2023-07-29T16:25:16;14.30;99.90
16114;DHT22;8161;-33.910;151.156;2023-07-29T16:30:28;14.20;99.90
16114;DHT22;8161;-33.910;151.156;2023-07-29T16:32:55;14.20;99.90
16114;DHT22;8161;-33.910;151.156;2023-07-29T16:35:22;14.90;99.90
16114;DHT22;8161;-33.910;151.156;2023-07-29T16:37:50;14.60;99.90
16114;DHT22;8161;-33.910;151.156;2023-07-29T16:40:17;14.70;99.90
16114;DHT22;8161;-33.910;151.156;2023-07-29T16:42:45;14.20;99.90
16114;DHT22;8161;-33.910;151.156;2023-07-29T16:45:12;15.00;99.90
16114;DHT22;8161;-33.910;151.156;2023-07-29T16:50:07;14.70;99.90
16114;DHT22;8161;-33.910;151.156;2023-07-29T16:52:37;14.80;99.90
16114;DHT22;8161;-33.910;151.156;2023-07-29T16:55:08;14.10;99.90
16114;DHT22;8161;-33.910;151.156;2023-07-29T16:57:38;14.60;99.90
16114;DHT22;8161;-33.910;151.156;2023-07-29T17:00:06;14.10;99.90
16114;DHT22;8161;-33.910;151.156;2023-07-29T17:02:33;14.40;99.90
16114;DHT22;8161;-33.910;151.156;2023-07-29T17:05:00;14.30;99.90
16114;DHT22;8161;-33.910;151.156;2023-07-29T17:07:31;14.60;99.90
16114;DHT22;8161;-33.910;151.156;2023-07-29T17:09:58;14.60;99.90
16114;DHT22;8161;-33.910;151.156;2023-07-29T17:12:25;14.20;99.90
16114;DHT22;8161;-33.910;151.156;2023-07-29T17:17:20;14.30;99.90
16114;DHT22;8161;-33.910;151.156;2023-07-29T17:19:47;14.60;99.90
16114;DHT22;8161;-33.910;151.156;2023-07-29T17:22:14;14.50;99.90
16114;DHT22;8161;-33.910;151.156;2023-07-29T17:24:41;14.10;99.90
16114;DHT22;8161;-33.910;151.156;2023-07-29T17:27:12;14.00;99.90
16114;DHT22;8161;-33.910;151.156;2023-07-29T17:29:39;14.70;99.90
16114;DHT22;8161;-33.910;151.156;2023-07-29T17:32:08;14.60;99.90
16114;DHT22;8161;-33.910;151.156;2023-07-29T17:34:35;14.20;99.90
16114;DHT22;8161;-33.910;151.156;2023-07-29T17:37:02;14.30;99.90
16114;DHT22;8161;-33.910;151.156;2023-07-29T17:39:30;14.50;99.90
16114;DHT22;8161;-33.910;151.156;2023-07-29T17:41:58;14.10;99.90
16114;DHT22;8161;-33.910;151.156;2023-07-29T17:44:25;14.50;99.90
16114;DHT22;8161;-33.910;151.156;2023-07-29T17:46:52;14.50;99.90
16114;DHT22;8161;-33.910;151.156;2023-07-29T17:49:19;14.10;99.90
16114;DHT22;8161;-33.910;151.156;2023-07-29T17:51:46;14.00;99.90
16114;DHT22;8161;-33.910;151.156;2023-07-29T17:56:46;14.50;99.90
16114;DHT22;8161;-33.910;151.156;2023-07-29T17:59:14;14.50;99.90
16114;DHT22;8161;-33.910;151.156;2023-07-29T18:04:09;14.40;99.90
16114;DHT22;8161;-33.910;151.156;2023-07-29T18:06:36;13.90;99.90
16114;DHT22;8161;-33.910;151.156;2023-07-29T18:09:06;13.70;99.90
16114;DHT22;8161;-33.910;151.156;2023-07-29T18:11:33;14.40;99.90
16114;DHT22;8161;-33.910;151.156;2023-07-29T18:14:00;14.10;99.90
16114;DHT22;8161;-33.910;151.156;2023-07-29T18:16:30;14.30;99.90
16114;DHT22;8161;-33.910;151.156;2023-07-29T18:18:58;14.30;99.90
16114;DHT22;8161;-33.910;151.156;2023-07-29T18:21:25;13.70;99.90
16114;DHT22;8161;-33.910;151.156;2023-07-29T18:26:19;14.10;99.90
16114;DHT22;8161;-33.910;151.156;2023-07-29T18:28:47;13.10;99.90
16114;DHT22;8161;-33.910;151.156;2023-07-29T18:36:08;13.80;99.90
16114;DHT22;8161;-33.910;151.156;2023-07-29T18:38:35;13.60;99.90
16114;DHT22;8161;-33.910;151.156;2023-07-29T18:41:03;14.30;99.90